Time;durP1;ratioP1;P1;durP2;ratioP2;P2;SDS_P1;SDS_P2;PMS_P1;PMS_P2;Temp;Humidity;BMP_temperature;BMP_pressure;BME280_temperature;BME280_humidity;BME280_pressure;Samples;Min_cycle;Max_cycle;Signal;HPM_P1;HPM_P2
2023/11/23 00:01:27;;;;;;;8.23;5.30;;;8.90;99.90;;;;;;5093749;28;20489;-70
2023/11/23 00:03:54;;;;;;;9.43;5.57;;;9.00;99.90;;;;;;5093306;28;20048;-70
2023/11/23 00:06:21;;;;;;;8.18;5.22;;;8.90;99.90;;;;;;5093959;28;20044;-70
2023/11/23 00:08:49;;;;;;;9.38;5.13;;;9.00;99.90;;;;;;5093564;28;20060;-70
2023/11/23 00:11:16;;;;;;;8.63;5.60;;;8.90;99.90;;;;;;5093815;28;20032;-71
2023/11/23 00:13:42;;;;;;;9.63;5.78;;;9.00;99.90;;;;;;5093456;28;20040;-70
2023/11/23 00:16:09;;;;;;;12.82;5.82;;;8.90;99.90;;;;;;5093321;28;20040;-70
2023/11/23 00:18:36;;;;;;;8.77;5.45;;;8.90;99.90;;;;;;5093503;28;20477;-70
2023/11/23 00:21:03;;;;;;;8.52;5.28;;;8.90;99.90;;;;;;5093652;28;20040;-70
2023/11/23 00:23:31;;;;;;;9.25;5.32;;;8.90;99.90;;;;;;5093142;28;20106;-71
2023/11/23 00:25:58;;;;;;;9.35;5.65;;;8.90;99.90;;;;;;5093718;28;20055;-71
2023/11/23 00:28:25;;;;;;;8.45;5.40;;;8.90;99.90;;;;;;5093102;28;20043;-71
2023/11/23 00:30:52;;;;;;;8.32;5.03;;;8.80;99.90;;;;;;5093350;28;20029;-70
2023/11/23 00:33:19;;;;;;;7.03;4.93;;;8.80;99.90;;;;;;5093625;28;20058;-70
2023/11/23 00:35:46;;;;;;;9.48;5.40;;;8.80;99.90;;;;;;5093165;28;20420;-71
2023/11/23 00:38:18;;;;;;;8.23;5.18;;;8.80;99.90;;;;;;5093248;28;20127;-71
2023/11/23 00:40:45;;;;;;;8.30;5.63;;;8.80;99.90;;;;;;5094065;28;20044;-70
2023/11/23 00:43:12;;;;;;;7.82;5.63;;;8.70;99.90;;;;;;5097267;28;20037;-70
2023/11/23 00:45:39;;;;;;;8.13;5.10;;;8.70;99.90;;;;;;5097449;28;20044;-71
2023/11/23 00:48:05;;;;;;;10.13;5.60;;;8.70;99.90;;;;;;5097088;28;20059;-70
2023/11/23 00:50:33;;;;;;;8.07;5.15;;;8.70;99.90;;;;;;5097350;28;20040;-69
2023/11/23 00:52:59;;;;;;;9.15;5.25;;;8.70;99.90;;;;;;5097133;28;20051;-69
2023/11/23 00:55:26;;;;;;;7.80;5.38;;;8.70;99.90;;;;;;5095831;28;20431;-70
2023/11/23 00:57:53;;;;;;;10.73;5.68;;;8.60;99.90;;;;;;5096528;28;20044;-69
2023/11/23 01:00:20;;;;;;;9.05;5.22;;;8.60;99.90;;;;;;5095862;28;20550;-69
2023/11/23 01:02:47;;;;;;;10.98;5.72;;;8.60;99.90;;;;;;5097014;28;20105;-69
2023/11/23 01:05:15;;;;;;;7.43;5.10;;;8.60;99.90;;;;;;5095434;28;20040;-69
2023/11/23 01:07:42;;;;;;;7.38;5.25;;;8.60;99.90;;;;;;5096644;28;20036;-70
2023/11/23 01:10:10;;;;;;;9.00;5.65;;;8.50;99.90;;;;;;5096928;28;20048;-70
2023/11/23 01:12:37;;;;;;;7.78;5.55;;;8.50;99.90;;;;;;5096694;28;20119;-70
2023/11/23 01:15:03;;;;;;;9.20;5.57;;;8.50;99.90;;;;;;5096901;28;20427;-70
2023/11/23 01:17:30;;;;;;;10.07;5.47;;;8.50;99.90;;;;;;5095169;28;20123;-69
2023/11/23 01:19:57;;;;;;;10.95;5.57;;;8.50;99.90;;;;;;5096614;28;20039;-69
2023/11/23 01:22:24;;;;;;;9.85;5.57;;;8.50;99.90;;;;;;5094940;28;20400;-69
2023/11/23 01:24:51;;;;;;;10.23;6.15;;;8.40;99.90;;;;;;5095010;28;20101;-69
2023/11/23 01:27:18;;;;;;;13.10;6.00;;;8.50;99.90;;;;;;5095199;28;20036;-69
2023/11/23 01:29:44;;;;;;;12.18;6.07;;;8.50;99.90;;;;;;5096536;28;20032;-69
2023/11/23 01:32:11;;;;;;;10.95;6.18;;;8.50;99.90;;;;;;5094894;28;20036;-70
2023/11/23 01:34:38;;;;;;;7.80;5.07;;;8.50;99.90;;;;;;5095004;28;20054;-70
2023/11/23 01:37:05;;;;;;;11.77;6.10;;;8.50;99.90;;;;;;5094672;28;20048;-70
2023/11/23 01:39:32;;;;;;;10.88;5.78;;;8.60;99.90;;;;;;5095087;28;20051;-69
2023/11/23 01:41:59;;;;;;;9.57;5.90;;;8.60;99.90;;;;;;5095092;28;20085;-69
2023/11/23 01:44:26;;;;;;;10.48;5.88;;;8.60;99.90;;;;;;5095993;28;20036;-69
2023/11/23 01:46:53;;;;;;;10.25;6.22;;;8.60;99.90;;;;;;5096305;28;20085;-69
2023/11/23 01:49:20;;;;;;;7.55;5.18;;;8.60;99.90;;;;;;5094961;28;20070;-69
2023/11/23 01:51:46;;;;;;;8.05;5.63;;;8.60;99.90;;;;;;5095176;28;20043;-70
2023/11/23 01:54:13;;;;;;;8.60;6.00;;;8.60;99.90;;;;;;5095888;28;20123;-69
2023/11/23 01:56:40;;;;;;;8.70;5.43;;;8.50;99.90;;;;;;5094777;28;20040;-69
2023/11/23 01:59:07;;;;;;;11.02;6.05;;;8.50;99.90;;;;;;5094622;28;20044;-70
2023/11/23 02:01:33;;;;;;;8.45;5.93;;;8.50;99.90;;;;;;5094264;28;20439;-70
2023/11/23 02:04:00;;;;;;;9.73;5.78;;;8.50;99.90;;;;;;5095600;28;20047;-70
2023/11/23 02:06:27;;;;;;;9.63;5.70;;;8.50;99.90;;;;;;5095857;28;20040;-69
2023/11/23 02:08:54;;;;;;;9.80;5.88;;;8.50;99.90;;;;;;5094109;28;20044;-70
2023/11/23 02:11:21;;;;;;;9.95;5.50;;;8.50;99.90;;;;;;5077037;28;20580;-70
2023/11/23 02:13:48;;;;;;;8.57;5.32;;;8.50;99.90;;;;;;5095079;28;20052;-69
2023/11/23 02:16:14;;;;;;;9.50;5.22;;;8.50;99.90;;;;;;5094907;28;20044;-70
2023/11/23 02:18:41;;;;;;;9.38;5.10;;;8.50;99.90;;;;;;5094871;28;20040;-69
2023/11/23 02:21:08;;;;;;;8.95;5.10;;;8.50;99.90;;;;;;5094048;28;20109;-69
2023/11/23 02:23:35;;;;;;;8.38;4.63;;;8.50;99.90;;;;;;5094854;28;20073;-69
2023/11/23 02:26:02;;;;;;;10.80;5.00;;;8.50;99.90;;;;;;5093515;28;20051;-69
2023/11/23 02:28:28;;;;;;;9.48;4.65;;;8.50;99.90;;;;;;5095080;28;20418;-69
2023/11/23 02:30:55;;;;;;;11.63;4.88;;;8.50;99.90;;;;;;5093790;28;20085;-69
2023/11/23 02:33:22;;;;;;;7.90;5.22;;;8.50;99.90;;;;;;5094651;28;20040;-69
2023/11/23 02:35:49;;;;;;;8.02;4.97;;;8.50;99.90;;;;;;5094998;28;20093;-70
2023/11/23 02:38:16;;;;;;;11.50;5.07;;;8.50;99.90;;;;;;5094320;28;20056;-69
2023/11/23 02:40:42;;;;;;;8.13;5.70;;;8.50;99.90;;;;;;5093073;28;20036;-70
2023/11/23 02:43:09;;;;;;;10.48;5.22;;;8.50;99.90;;;;;;5094539;28;20445;-69
2023/11/23 02:45:36;;;;;;;13.48;5.63;;;8.50;99.90;;;;;;5094368;28;20040;-70
2023/11/23 02:48:06;;;;;;;9.45;5.60;;;8.40;99.90;;;;;;5094375;28;20111;-69
2023/11/23 02:50:34;;;;;;;10.75;5.38;;;8.50;99.90;;;;;;5094569;28;20044;-69
2023/11/23 02:53:01;;;;;;;7.93;5.20;;;8.50;99.90;;;;;;5093469;28;20055;-70
2023/11/23 02:55:28;;;;;;;12.05;5.78;;;8.50;99.90;;;;;;5093018;28;20091;-70
2023/11/23 02:57:54;;;;;;;9.00;5.43;;;8.40;99.90;;;;;;5093092;28;20415;-69
2023/11/23 03:00:22;;;;;;;10.80;5.72;;;8.50;99.90;;;;;;5092949;28;20044;-69
2023/11/23 03:02:49;;;;;;;7.68;4.93;;;8.50;99.90;;;;;;5094224;28;20040;-69
2023/11/23 03:05:16;;;;;;;9.00;4.43;;;8.50;99.90;;;;;;5093910;28;20123;-69
2023/11/23 03:07:43;;;;;;;7.32;4.38;;;8.50;99.90;;;;;;5076170;28;20201;-69
2023/11/23 03:10:10;;;;;;;6.22;4.47;;;8.50;99.90;;;;;;5092691;28;20035;-69
2023/11/23 03:12:36;;;;;;;6.40;3.90;;;8.60;99.90;;;;;;5093216;28;20036;-69
2023/11/23 03:15:03;;;;;;;7.30;3.90;;;8.60;99.90;;;;;;5094018;28;20097;-69
2023/11/23 03:17:31;;;;;;;7.55;4.20;;;8.60;99.90;;;;;;5092743;28;20121;-69
2023/11/23 03:19:58;;;;;;;7.40;4.30;;;8.70;99.90;;;;;;5092827;28;20449;-70
2023/11/23 03:22:25;;;;;;;5.95;3.60;;;8.60;99.90;;;;;;5094045;28;20040;-70
2023/11/23 03:24:52;;;;;;;6.28;3.88;;;8.60;99.90;;;;;;5093698;28;20093;-70
2023/11/23 03:27:19;;;;;;;7.43;3.97;;;8.60;99.90;;;;;;5092986;28;20051;-70
2023/11/23 03:29:45;;;;;;;8.93;3.63;;;8.60;99.90;;;;;;5093739;28;20040;-70
2023/11/23 03:32:12;;;;;;;4.95;3.22;;;8.70;99.90;;;;;;5093784;28;20457;-70
2023/11/23 03:34:39;;;;;;;5.00;3.15;;;8.60;99.90;;;;;;5093694;28;20064;-70
2023/11/23 03:37:06;;;;;;;3.85;3.25;;;8.70;99.90;;;;;;5092050;28;20048;-69
2023/11/23 03:39:33;;;;;;;7.18;3.65;;;8.70;99.90;;;;;;5093726;28;20040;-69
2023/11/23 03:42:00;;;;;;;5.55;3.35;;;8.70;99.90;;;;;;5092656;28;20039;-69
2023/11/23 03:44:27;;;;;;;7.50;3.28;;;8.80;99.90;;;;;;5093735;28;20044;-70
2023/11/23 03:46:54;;;;;;;5.68;2.95;;;8.70;99.90;;;;;;5093641;28;20036;-70
2023/11/23 03:49:21;;;;;;;5.65;2.83;;;8.70;99.90;;;;;;5092107;28;20042;-70
2023/11/23 03:51:48;;;;;;;6.82;3.00;;;8.70;99.90;;;;;;5092242;28;20492;-70
2023/11/23 03:54:15;;;;;;;7.78;3.00;;;8.70;99.90;;;;;;5092286;28;20139;-70
2023/11/23 03:56:42;;;;;;;5.07;2.80;;;8.80;99.90;;;;;;5093357;28;20093;-70
2023/11/23 03:59:09;;;;;;;7.53;2.80;;;8.80;99.90;;;;;;5092867;28;20040;-70
2023/11/23 04:01:35;;;;;;;6.00;2.50;;;8.80;99.90;;;;;;5092232;28;20040;-69
2023/11/23 04:04:02;;;;;;;4.80;2.38;;;8.80;99.90;;;;;;5093227;28;20054;-69
2023/11/23 04:06:29;;;;;;;9.20;3.70;;;8.90;99.90;;;;;;5093452;28;20517;-69
2023/11/23 04:08:56;;;;;;;7.03;2.60;;;9.00;99.90;;;;;;5091946;28;20507;-69
2023/11/23 04:11:23;;;;;;;4.28;2.40;;;9.10;99.90;;;;;;5093342;28;20042;-70
2023/11/23 04:13:50;;;;;;;3.55;2.30;;;9.10;99.90;;;;;;5093033;28;20089;-70
2023/11/23 04:16:17;;;;;;;5.38;2.40;;;9.20;99.90;;;;;;5095375;28;20051;-69
2023/11/23 04:18:44;;;;;;;6.63;2.20;;;9.20;99.90;;;;;;5097481;28;20047;-69
2023/11/23 04:21:11;;;;;;;4.97;2.45;;;9.30;99.90;;;;;;5097446;28;20048;-70
2023/11/23 04:23:38;;;;;;;4.80;1.98;;;9.30;99.90;;;;;;5097694;28;20540;-69
2023/11/23 04:26:05;;;;;;;4.43;1.90;;;9.40;99.90;;;;;;5097230;28;20089;-70
2023/11/23 04:28:31;;;;;;;4.82;2.10;;;9.40;99.90;;;;;;5097101;28;20036;-69
2023/11/23 04:30:58;;;;;;;6.78;2.28;;;9.50;99.90;;;;;;5096002;28;20138;-69
2023/11/23 04:33:25;;;;;;;5.95;2.40;;;9.50;99.90;;;;;;5097186;28;20036;-70
2023/11/23 04:35:52;;;;;;;6.43;1.92;;;9.50;99.90;;;;;;5097410;28;20063;-70
2023/11/23 04:38:19;;;;;;;9.35;2.15;;;9.60;99.90;;;;;;5096896;28;20082;-69
2023/11/23 04:40:45;;;;;;;5.32;2.10;;;9.60;99.90;;;;;;5095663;28;20044;-70
2023/11/23 04:43:12;;;;;;;5.50;2.10;;;9.60;99.90;;;;;;5097178;28;20040;-70
2023/11/23 04:45:39;;;;;;;8.63;2.40;;;9.70;99.90;;;;;;5097227;28;20044;-70
2023/11/23 04:48:06;;;;;;;3.55;2.20;;;9.60;99.90;;;;;;5096956;28;20092;-70
2023/11/23 04:50:34;;;;;;;5.40;2.28;;;9.60;99.90;;;;;;5096782;28;20469;-69
2023/11/23 04:53:01;;;;;;;5.05;2.13;;;9.60;99.90;;;;;;5097260;28;20043;-69
2023/11/23 04:55:29;;;;;;;5.05;2.33;;;9.60;99.90;;;;;;5095732;28;20056;-70
2023/11/23 04:57:55;;;;;;;6.30;2.20;;;9.60;99.90;;;;;;5096849;28;20042;-70
2023/11/23 05:00:24;;;;;;;6.22;2.15;;;9.60;99.90;;;;;;5096776;28;20392;-70
2023/11/23 05:02:53;;;;;;;4.18;1.90;;;9.60;99.90;;;;;;5096662;28;20200;-69
2023/11/23 05:05:20;;;;;;;5.20;1.90;;;9.50;99.90;;;;;;5078467;28;20043;-70
2023/11/23 05:07:46;;;;;;;4.85;2.00;;;9.60;99.90;;;;;;5096091;28;20050;-69
2023/11/23 05:10:14;;;;;;;6.30;2.05;;;9.60;99.90;;;;;;5095278;28;20051;-70
2023/11/23 05:12:41;;;;;;;11.90;2.38;;;9.50;99.90;;;;;;5094999;28;20123;-70
2023/11/23 05:15:08;;;;;;;8.57;2.08;;;9.60;99.90;;;;;;5096492;28;20477;-69
2023/11/23 05:17:35;;;;;;;7.20;2.00;;;9.60;99.90;;;;;;5096273;28;20477;-70
2023/11/23 05:20:02;;;;;;;8.02;2.15;;;9.60;99.90;;;;;;5095209;28;20044;-70
2023/11/23 05:22:29;;;;;;;7.50;2.00;;;9.60;99.90;;;;;;5096187;28;20146;-70
2023/11/23 05:24:56;;;;;;;3.88;1.63;;;9.60;99.90;;;;;;5096345;28;20453;-70
2023/11/23 05:27:22;;;;;;;5.43;2.50;;;9.50;99.90;;;;;;5095085;28;20111;-71
2023/11/23 05:29:49;;;;;;;7.38;2.08;;;9.50;99.90;;;;;;5096430;28;20036;-70
2023/11/23 05:32:18;;;;;;;5.88;2.03;;;9.50;99.90;;;;;;5096393;28;20040;-70
2023/11/23 05:34:45;;;;;;;7.72;2.03;;;9.50;99.90;;;;;;5095806;28;20055;-70
2023/11/23 05:37:12;;;;;;;7.03;2.10;;;9.50;99.90;;;;;;5095526;28;20503;-70
2023/11/23 05:39:39;;;;;;;5.35;2.33;;;9.40;99.90;;;;;;5096059;28;20051;-70
2023/11/23 05:42:10;;;;;;;7.18;2.30;;;9.40;99.90;;;;;;5094870;28;20071;-70
2023/11/23 05:44:37;;;;;;;9.27;2.53;;;9.40;99.90;;;;;;5095912;28;20082;-70
2023/11/23 05:47:04;;;;;;;3.97;2.30;;;9.50;99.90;;;;;;5096281;28;20036;-70
2023/11/23 05:49:31;;;;;;;9.65;2.40;;;9.50;99.90;;;;;;5095598;28;20032;-70
2023/11/23 05:51:57;;;;;;;12.00;2.97;;;9.50;99.90;;;;;;5094605;28;20078;-71
2023/11/23 05:54:24;;;;;;;8.05;2.22;;;9.50;99.90;;;;;;5095909;28;20051;-70
2023/11/23 05:56:51;;;;;;;8.02;2.58;;;9.60;99.90;;;;;;5095391;28;20040;-70
2023/11/23 05:59:18;;;;;;;7.78;1.88;;;9.60;99.90;;;;;;5095415;28;20052;-70
2023/11/23 06:01:45;;;;;;;3.78;1.60;;;9.60;99.90;;;;;;5095449;28;20509;-70
2023/11/23 06:04:12;;;;;;;3.85;2.08;;;9.60;99.90;;;;;;5093904;28;20059;-70
2023/11/23 06:06:39;;;;;;;6.85;2.10;;;9.50;99.90;;;;;;5095147;28;20485;-70
2023/11/23 06:09:08;;;;;;;6.22;2.10;;;9.50;99.90;;;;;;5095120;28;20044;-70
2023/11/23 06:11:36;;;;;;;5.97;2.53;;;9.50;99.90;;;;;;5094186;28;20067;-70
2023/11/23 06:14:03;;;;;;;6.15;2.40;;;9.50;99.90;;;;;;5095351;28;20040;-70
2023/11/23 06:16:29;;;;;;;4.90;2.08;;;9.50;99.90;;;;;;5093950;28;20055;-70
2023/11/23 06:18:56;;;;;;;7.95;2.30;;;9.50;99.90;;;;;;5093990;28;20040;-70
2023/11/23 06:21:25;;;;;;;6.85;2.50;;;9.40;99.90;;;;;;5095465;28;20489;-70
2023/11/23 06:23:52;;;;;;;6.20;2.40;;;9.40;99.90;;;;;;5095343;28;20040;-70
2023/11/23 06:26:20;;;;;;;6.25;2.08;;;9.40;99.90;;;;;;5095627;28;20043;-70
2023/11/23 06:28:48;;;;;;;7.82;2.55;;;9.40;99.90;;;;;;5095295;28;20112;-70
2023/11/23 06:31:15;;;;;;;5.88;2.20;;;9.40;99.90;;;;;;5094222;28;20416;-71
2023/11/23 06:33:42;;;;;;;5.93;2.28;;;9.40;99.90;;;;;;5095394;28;20040;-70
2023/11/23 06:36:10;;;;;;;7.25;2.20;;;9.30;99.90;;;;;;5094993;28;20048;-70
2023/11/23 06:38:36;;;;;;;7.60;2.00;;;9.40;99.90;;;;;;5094859;28;20063;-71
2023/11/23 06:41:03;;;;;;;4.45;2.20;;;9.30;99.90;;;;;;5095417;28;20040;-70
2023/11/23 06:43:31;;;;;;;5.22;2.30;;;9.30;99.90;;;;;;5094894;28;20108;-70
2023/11/23 06:45:58;;;;;;;5.22;2.58;;;9.40;99.90;;;;;;5095190;28;20385;-70
2023/11/23 06:48:25;;;;;;;8.43;2.28;;;9.40;99.90;;;;;;5095026;28;20040;-70
2023/11/23 06:50:52;;;;;;;4.78;2.22;;;9.40;99.90;;;;;;5094928;28;20086;-70
2023/11/23 06:53:21;;;;;;;5.90;2.13;;;9.40;99.90;;;;;;5094736;28;20044;-70
2023/11/23 06:55:48;;;;;;;7.55;2.40;;;9.40;99.90;;;;;;5094375;28;20050;-70
2023/11/23 06:58:15;;;;;;;6.95;2.47;;;9.40;99.90;;;;;;5094655;28;20044;-70
2023/11/23 07:00:42;;;;;;;5.80;2.00;;;9.40;99.90;;;;;;5094454;28;20036;-70
2023/11/23 07:03:10;;;;;;;6.03;2.20;;;9.50;99.90;;;;;;5095040;28;20048;-70
2023/11/23 07:05:37;;;;;;;5.85;2.50;;;9.50;99.90;;;;;;5094701;28;20389;-70
2023/11/23 07:08:04;;;;;;;5.55;2.40;;;9.50;99.90;;;;;;5094711;28;20068;-70
2023/11/23 07:10:33;;;;;;;6.60;2.10;;;9.60;99.90;;;;;;5094794;28;20036;-70
2023/11/23 07:13:02;;;;;;;6.45;2.30;;;9.60;99.90;;;;;;5094421;28;20036;-70
2023/11/23 07:15:29;;;;;;;5.80;2.10;;;9.60;99.90;;;;;;5094607;28;20071;-71
2023/11/23 07:17:58;;;;;;;4.38;1.80;;;9.60;99.90;;;;;;5094368;28;20087;-70
2023/11/23 07:20:26;;;;;;;5.05;2.03;;;9.60;99.90;;;;;;5093334;28;20048;-71
2023/11/23 07:22:53;;;;;;;11.20;2.22;;;9.70;99.90;;;;;;5093394;28;20047;-71
2023/11/23 07:25:20;;;;;;;6.07;2.22;;;9.70;99.90;;;;;;5093074;28;20051;-72
2023/11/23 07:27:47;;;;;;;5.68;2.20;;;9.70;99.90;;;;;;5094137;28;20106;-71
2023/11/23 07:30:14;;;;;;;8.48;3.33;;;9.70;99.90;;;;;;5094037;28;20040;-71
2023/11/23 07:32:41;;;;;;;6.53;2.45;;;9.70;99.90;;;;;;5094538;28;20063;-71
2023/11/23 07:35:08;;;;;;;6.93;2.30;;;9.80;99.90;;;;;;5094271;28;20040;-71
2023/11/23 07:37:35;;;;;;;9.43;2.63;;;9.80;99.90;;;;;;5093897;28;20059;-71
2023/11/23 07:40:12;;;;;;;4.85;1.92;;;9.80;99.90;;;;;;5092300;28;20067;-71
2023/11/23 07:42:41;;;;;;;7.95;2.63;;;9.80;99.90;;;;;;5094265;28;20051;-71
2023/11/23 07:45:08;;;;;;;5.13;2.47;;;9.80;99.90;;;;;;5094119;28;20040;-71
2023/11/23 07:47:34;;;;;;;7.07;2.33;;;9.80;99.90;;;;;;5093995;28;20051;-71
2023/11/23 07:50:01;;;;;;;7.53;2.47;;;9.80;99.90;;;;;;5093419;28;20036;-71
2023/11/23 07:52:29;;;;;;;4.57;2.45;;;9.80;99.90;;;;;;5086189;28;20040;-71
2023/11/23 07:54:55;;;;;;;7.03;2.75;;;9.80;99.90;;;;;;5091766;28;20044;-72
2023/11/23 07:57:23;;;;;;;4.65;2.20;;;9.80;99.90;;;;;;5081589;28;20051;-71
2023/11/23 07:59:56;;;;;;;5.43;2.70;;;9.80;99.90;;;;;;5072700;28;20120;-70
2023/11/23 08:02:26;;;;;;;7.28;2.25;;;9.80;99.90;;;;;;5072484;28;20040;-71
2023/11/23 08:04:53;;;;;;;5.85;2.95;;;9.80;99.90;;;;;;5075091;28;20119;-71
2023/11/23 08:07:20;;;;;;;6.00;2.25;;;9.80;99.90;;;;;;5080904;28;20097;-71
2023/11/23 08:09:47;;;;;;;4.57;2.50;;;9.80;99.90;;;;;;5055092;28;20052;-71
2023/11/23 08:12:14;;;;;;;6.30;2.30;;;9.90;99.90;;;;;;5073097;28;20037;-71
2023/11/23 08:14:41;;;;;;;6.88;2.40;;;9.80;99.90;;;;;;5072865;28;20044;-71
2023/11/23 08:17:08;;;;;;;5.13;2.38;;;9.90;99.90;;;;;;5073045;28;20044;-71
2023/11/23 08:19:35;;;;;;;8.32;2.65;;;9.90;99.90;;;;;;5072738;28;20055;-71
2023/11/23 08:22:02;;;;;;;5.20;2.70;;;9.90;99.90;;;;;;5072820;28;20045;-71
2023/11/23 08:24:29;;;;;;;6.85;2.28;;;9.90;99.90;;;;;;5072244;28;20048;-71
2023/11/23 08:26:56;;;;;;;5.60;2.45;;;9.90;99.90;;;;;;5071973;28;20117;-71
2023/11/23 08:29:23;;;;;;;5.20;2.67;;;9.90;99.90;;;;;;5072912;28;20346;-71
2023/11/23 08:31:51;;;;;;;7.80;3.00;;;10.00;99.90;;;;;;5071805;28;20040;-71
2023/11/23 08:34:18;;;;;;;5.75;2.70;;;10.00;99.90;;;;;;5071893;28;20059;-71
2023/11/23 08:36:45;;;;;;;6.28;2.80;;;10.10;99.90;;;;;;5071651;28;20033;-71
2023/11/23 08:39:12;;;;;;;5.72;3.03;;;10.10;99.90;;;;;;5072136;28;20060;-71
2023/11/23 08:41:39;;;;;;;5.47;2.70;;;10.20;99.90;;;;;;5072078;28;20055;-72
2023/11/23 08:44:06;;;;;;;5.88;3.10;;;10.20;99.90;;;;;;5072267;28;20052;-71
2023/11/23 08:46:33;;;;;;;7.28;3.28;;;10.20;99.90;;;;;;5072783;28;20140;-71
2023/11/23 08:49:00;;;;;;;4.82;2.72;;;10.30;99.90;;;;;;5073260;28;20036;-71
2023/11/23 08:51:28;;;;;;;6.30;3.25;;;10.40;99.90;;;;;;5072875;28;20036;-71
2023/11/23 08:53:55;;;;;;;4.82;2.75;;;10.40;99.90;;;;;;5073055;28;20041;-71
2023/11/23 08:56:22;;;;;;;6.57;3.38;;;10.40;99.90;;;;;;5072910;28;20044;-71
2023/11/23 08:58:49;;;;;;;6.03;3.15;;;10.40;99.90;;;;;;5072868;28;20044;-71
2023/11/23 09:01:15;;;;;;;9.65;3.50;;;10.50;99.90;;;;;;5074016;28;20052;-71
2023/11/23 09:03:42;;;;;;;8.70;3.30;;;10.50;99.90;;;;;;5076558;28;20044;-71
2023/11/23 09:06:09;;;;;;;6.47;3.28;;;10.50;99.90;;;;;;5076777;28;20128;-72
2023/11/23 09:08:37;;;;;;;7.32;3.22;;;10.60;99.90;;;;;;5076559;28;20052;-71
2023/11/23 09:11:03;;;;;;;7.95;3.60;;;10.60;99.90;;;;;;5076474;28;20044;-71
2023/11/23 09:13:31;;;;;;;6.95;3.08;;;10.60;99.90;;;;;;5076250;28;20191;-71
2023/11/23 09:15:59;;;;;;;6.05;3.25;;;10.60;99.90;;;;;;5076632;28;20432;-71
2023/11/23 09:18:26;;;;;;;9.80;3.85;;;10.60;99.90;;;;;;5076474;28;20055;-71
2023/11/23 09:20:53;;;;;;;7.00;3.55;;;10.60;99.90;;;;;;5076087;28;20131;-71
2023/11/23 09:23:24;;;;;;;7.32;4.38;;;10.70;99.90;;;;;;5076665;28;20076;-71
2023/11/23 09:25:51;;;;;;;5.88;3.05;;;10.70;99.90;;;;;;5075970;28;20121;-71
2023/11/23 09:28:19;;;;;;;5.35;3.05;;;10.70;99.90;;;;;;5076151;28;20036;-71
2023/11/23 09:30:46;;;;;;;6.60;2.80;;;10.70;99.90;;;;;;5075136;28;20429;-71
2023/11/23 09:33:12;;;;;;;5.00;3.25;;;10.70;99.90;;;;;;5075941;28;20083;-71
2023/11/23 09:35:42;;;;;;;4.18;2.70;;;10.80;99.90;;;;;;5076113;28;20036;-71
2023/11/23 09:38:09;;;;;;;6.25;2.90;;;10.80;99.90;;;;;;5074673;28;20048;-69
2023/11/23 09:40:36;;;;;;;7.32;3.20;;;10.90;99.90;;;;;;5076236;28;20041;-70
2023/11/23 09:43:02;;;;;;;6.32;2.70;;;10.90;99.90;;;;;;5076126;28;20110;-71
2023/11/23 09:45:29;;;;;;;4.63;3.10;;;11.00;99.90;;;;;;5075671;28;20127;-71
2023/11/23 09:47:56;;;;;;;3.55;2.55;;;11.00;99.90;;;;;;5075708;28;20127;-71
2023/11/23 09:50:23;;;;;;;5.70;2.85;;;11.10;99.90;;;;;;5075800;28;20047;-71
2023/11/23 09:52:50;;;;;;;4.38;2.85;;;11.20;99.90;;;;;;5075512;28;20039;-71
2023/11/23 09:55:17;;;;;;;6.53;3.05;;;11.20;99.90;;;;;;5075601;28;20052;-71
2023/11/23 09:57:44;;;;;;;4.10;2.92;;;11.20;99.90;;;;;;5075343;28;20409;-71
2023/11/23 10:00:14;;;;;;;4.43;2.50;;;11.20;99.90;;;;;;5074250;28;20135;-71
2023/11/23 10:02:41;;;;;;;6.20;2.83;;;11.30;99.90;;;;;;5073818;28;20060;-71
2023/11/23 10:05:11;;;;;;;8.23;2.10;;;11.30;99.90;;;;;;5073869;28;20051;-69
2023/11/23 10:07:38;;;;;;;5.68;2.83;;;11.30;99.90;;;;;;5075680;28;20033;-69
2023/11/23 10:10:05;;;;;;;4.95;2.10;;;11.40;99.90;;;;;;5074216;28;20041;-69
2023/11/23 10:12:32;;;;;;;4.72;2.20;;;11.40;99.90;;;;;;5074929;28;20052;-69
2023/11/23 10:14:59;;;;;;;4.55;2.20;;;11.50;99.90;;;;;;5074451;28;20046;-69
2023/11/23 10:17:29;;;;;;;7.88;2.17;;;11.50;99.90;;;;;;5075375;28;20044;-69
2023/11/23 10:19:55;;;;;;;4.07;2.17;;;11.50;99.90;;;;;;5075207;28;20040;-69
2023/11/23 10:22:22;;;;;;;5.68;2.42;;;11.50;99.90;;;;;;5075344;28;20039;-69
2023/11/23 10:24:49;;;;;;;4.75;2.47;;;11.50;99.90;;;;;;5075190;28;20041;-69
2023/11/23 10:27:16;;;;;;;4.35;2.10;;;11.50;99.90;;;;;;5074922;28;20486;-69
2023/11/23 10:29:43;;;;;;;6.22;2.60;;;11.50;99.90;;;;;;5073505;28;20032;-69
2023/11/23 10:32:10;;;;;;;4.85;2.00;;;11.50;99.90;;;;;;5075356;28;20044;-70
2023/11/23 10:34:36;;;;;;;3.67;1.92;;;11.40;99.90;;;;;;5074793;28;20092;-71
2023/11/23 10:37:04;;;;;;;5.68;2.97;;;11.50;99.90;;;;;;5074400;28;20557;-71
2023/11/23 10:39:31;;;;;;;4.72;2.05;;;11.50;99.90;;;;;;5074665;28;20040;-70
2023/11/23 10:41:59;;;;;;;3.17;1.80;;;11.40;99.90;;;;;;5075005;28;20044;-70
2023/11/23 10:44:28;;;;;;;6.60;1.90;;;11.40;99.90;;;;;;5074824;28;20072;-70
2023/11/23 10:47:02;;;;;;;4.85;2.00;;;11.40;99.90;;;;;;5074605;28;20066;-70
2023/11/23 10:49:30;;;;;;;8.38;2.30;;;11.40;99.90;;;;;;5073508;28;20068;-71
2023/11/23 10:51:57;;;;;;;5.20;2.17;;;11.40;99.90;;;;;;5074498;28;20040;-69
2023/11/23 10:54:24;;;;;;;4.85;1.95;;;11.40;99.90;;;;;;5074548;28;20040;-69
2023/11/23 10:56:50;;;;;;;4.53;2.20;;;11.40;99.90;;;;;;5074248;28;20046;-69
2023/11/23 10:59:20;;;;;;;6.07;2.08;;;11.40;99.90;;;;;;5074709;28;20044;-69
2023/11/23 11:01:47;;;;;;;5.72;2.28;;;11.40;99.90;;;;;;5074987;28;20128;-69
2023/11/23 11:04:14;;;;;;;4.43;2.20;;;11.40;99.90;;;;;;5074400;28;20381;-69
2023/11/23 11:06:41;;;;;;;3.72;1.92;;;11.40;99.90;;;;;;5074412;28;20036;-69
2023/11/23 11:09:08;;;;;;;6.38;2.05;;;11.40;99.90;;;;;;5074244;28;20454;-68
2023/11/23 11:11:36;;;;;;;4.68;2.10;;;11.40;99.90;;;;;;5074398;28;20056;-69
2023/11/23 11:14:03;;;;;;;4.88;1.60;;;11.50;99.90;;;;;;5074329;28;20039;-69
2023/11/23 11:16:30;;;;;;;2.95;1.60;;;11.40;99.90;;;;;;5074534;28;20045;-69
2023/11/23 11:18:57;;;;;;;5.53;2.00;;;11.40;99.90;;;;;;5074023;28;20041;-69
2023/11/23 11:21:24;;;;;;;4.95;2.38;;;11.50;99.90;;;;;;5074405;28;20078;-69
2023/11/23 11:23:54;;;;;;;5.55;1.55;;;11.50;99.90;;;;;;5073788;28;20586;-69
2023/11/23 11:26:21;;;;;;;4.47;1.60;;;11.50;99.90;;;;;;5072457;28;20072;-71
2023/11/23 11:28:48;;;;;;;5.22;1.50;;;11.50;99.90;;;;;;5073781;28;20070;-70
2023/11/23 11:31:15;;;;;;;4.03;1.52;;;11.50;99.90;;;;;;5074212;28;20036;-70
2023/11/23 11:33:42;;;;;;;3.25;1.60;;;11.50;99.90;;;;;;5073753;28;20056;-71
2023/11/23 11:36:08;;;;;;;3.13;1.80;;;11.50;99.90;;;;;;5073481;28;20041;-71
2023/11/23 11:38:36;;;;;;;4.57;1.70;;;11.50;99.90;;;;;;5073491;28;20553;-69
2023/11/23 11:41:03;;;;;;;4.28;1.48;;;11.50;99.90;;;;;;5073963;28;20393;-69
2023/11/23 11:43:30;;;;;;;3.20;1.52;;;11.50;99.90;;;;;;5073600;28;20087;-69
2023/11/23 11:45:57;;;;;;;5.05;1.73;;;11.50;99.90;;;;;;5073648;28;20358;-69
2023/11/23 11:48:24;;;;;;;3.83;1.73;;;11.60;99.90;;;;;;5073346;28;20060;-69
2023/11/23 11:50:51;;;;;;;5.40;2.10;;;11.60;99.90;;;;;;5074024;28;20037;-69
2023/11/23 11:53:18;;;;;;;6.35;2.20;;;11.60;99.90;;;;;;5073716;28;20090;-69
2023/11/23 11:55:47;;;;;;;4.90;1.90;;;11.60;99.90;;;;;;5073935;28;20072;-69
2023/11/23 11:58:14;;;;;;;5.65;2.10;;;11.70;99.90;;;;;;5072261;28;20049;-69
2023/11/23 12:00:44;;;;;;;4.45;2.10;;;11.70;99.90;;;;;;5073672;28;20103;-69
2023/11/23 12:03:11;;;;;;;4.45;2.50;;;11.70;99.90;;;;;;5073368;28;20098;-69
2023/11/23 12:05:39;;;;;;;5.05;2.05;;;11.80;99.90;;;;;;5073566;28;20461;-69
2023/11/23 12:08:06;;;;;;;5.07;2.42;;;11.80;99.90;;;;;;5072474;28;20111;-69
2023/11/23 12:10:33;;;;;;;3.58;2.20;;;11.80;99.90;;;;;;5073498;28;20098;-69
2023/11/23 12:13:00;;;;;;;4.80;2.60;;;11.90;99.90;;;;;;5072479;28;20056;-69
2023/11/23 12:15:27;;;;;;;6.63;2.92;;;12.00;99.90;;;;;;5073166;28;20119;-69
2023/11/23 12:17:55;;;;;;;6.60;2.90;;;12.00;99.90;;;;;;5073097;28;20045;-69
2023/11/23 12:20:22;;;;;;;7.20;2.88;;;12.00;99.90;;;;;;5073435;28;20043;-69
2023/11/23 12:22:49;;;;;;;7.32;2.85;;;12.00;99.90;;;;;;5073329;28;20389;-69
2023/11/23 12:25:19;;;;;;;4.30;2.90;;;12.00;99.90;;;;;;5073337;28;20098;-70
2023/11/23 12:27:45;;;;;;;5.63;3.05;;;12.00;99.90;;;;;;5072925;28;20090;-71
2023/11/23 12:30:15;;;;;;;6.07;3.25;;;12.00;99.90;;;;;;5073308;28;20414;-69
2023/11/23 12:32:42;;;;;;;5.28;3.22;;;12.00;99.90;;;;;;5073063;28;20061;-69
2023/11/23 12:35:09;;;;;;;5.95;3.33;;;12.00;99.90;;;;;;5073305;28;20062;-71
2023/11/23 12:37:36;;;;;;;6.05;3.30;;;12.00;99.90;;;;;;5076286;28;20052;-71
2023/11/23 12:40:09;;;;;;;8.93;3.70;;;12.00;99.90;;;;;;5076938;28;20119;-71
2023/11/23 12:42:36;;;;;;;8.23;3.08;;;12.00;99.90;;;;;;5077183;28;20036;-71
2023/11/23 12:45:05;;;;;;;6.93;3.80;;;12.00;99.90;;;;;;5077040;28;20098;-71
2023/11/23 12:47:32;;;;;;;5.85;3.10;;;12.00;99.90;;;;;;5076513;28;20466;-71
2023/11/23 12:49:59;;;;;;;6.50;3.15;;;12.00;99.90;;;;;;5076583;28;20036;-70
2023/11/23 12:52:26;;;;;;;8.43;3.08;;;12.00;99.90;;;;;;5077049;28;20032;-71